CG6036 PASI-PAJN
Flight info
| Callsign | CG6036 |
|---|---|
| Flight time | N/A |
| Altitude | 4500 |
| Route | PASI DCT CHATHAM STRAIT DCT PAJN |
| Aircraft | H60/M-SDFGIRY/S |
Departure
| Time | N/A |
|---|---|
| Airport | Sitka Rocky Gutierrez Airport (PASI) |
Arrival
| Time | 2026-04-25 05:59 |
|---|---|
| Airport | Juneau International Airport (PAJN) |
| Time | Latitude | Longitude | Altitude | Speed | Heading |
|---|---|---|---|---|---|
| 2026-04-25 05:44 | 57.85831 | -134.75963 | 1983 ft | 131 kts | 350° |
| 2026-04-25 05:44 | 57.86722 | -134.76227 | 1990 ft | 128 kts | 349° |
| 2026-04-25 05:45 | 57.87609 | -134.76489 | 1989 ft | 130 kts | 350° |
| 2026-04-25 05:45 | 57.88478 | -134.76786 | 1984 ft | 129 kts | 347° |
| 2026-04-25 05:45 | 57.89365 | -134.77111 | 1985 ft | 131 kts | 347° |
| 2026-04-25 05:45 | 57.90254 | -134.77441 | 1988 ft | 130 kts | 347° |
| 2026-04-25 05:46 | 57.91143 | -134.77741 | 1990 ft | 129 kts | 348° |
| 2026-04-25 05:46 | 57.92035 | -134.77989 | 1990 ft | 130 kts | 350° |
| 2026-04-25 05:46 | 57.92933 | -134.78184 | 1992 ft | 130 kts | 352° |
| 2026-04-25 05:46 | 57.93837 | -134.78326 | 2026 ft | 130 kts | 354° |
| 2026-04-25 05:47 | 57.94739 | -134.78414 | 2040 ft | 129 kts | 355° |
| 2026-04-25 05:47 | 57.95624 | -134.78449 | 2002 ft | 131 kts | 355° |
| 2026-04-25 05:47 | 57.96570 | -134.78436 | 2009 ft | 125 kts | 356° |
| 2026-04-25 05:47 | 57.97479 | -134.78361 | 1998 ft | 132 kts | 360° |
| 2026-04-25 05:48 | 57.98389 | -134.78223 | 2023 ft | 131 kts | 1° |
| 2026-04-25 05:48 | 57.99295 | -134.78021 | 2037 ft | 131 kts | 3° |
| 2026-04-25 05:48 | 58.00203 | -134.77756 | 2027 ft | 132 kts | 6° |
| 2026-04-25 05:48 | 58.01103 | -134.77428 | 2039 ft | 131 kts | 7° |
| 2026-04-25 05:49 | 58.01994 | -134.77040 | 2016 ft | 131 kts | 9° |
| 2026-04-25 05:49 | 58.02880 | -134.76589 | 2015 ft | 133 kts | 11° |
| 2026-04-25 05:49 | 58.03751 | -134.76080 | 2023 ft | 130 kts | 13° |
| 2026-04-25 05:49 | 58.04628 | -134.75549 | 2027 ft | 133 kts | 11° |
| 2026-04-25 05:50 | 58.05510 | -134.75098 | 2024 ft | 132 kts | 11° |
| 2026-04-25 05:50 | 58.06387 | -134.74571 | 2020 ft | 134 kts | 15° |
| 2026-04-25 05:50 | 58.07268 | -134.73914 | 2018 ft | 138 kts | 19° |
| 2026-04-25 05:50 | 58.08092 | -134.73185 | 2025 ft | 124 kts | 20° |
| 2026-04-25 05:51 | 58.08859 | -134.72462 | 2275 ft | 125 kts | 19° |
| 2026-04-25 05:51 | 58.09763 | -134.71688 | 3097 ft | 161 kts | 24° |
| 2026-04-25 05:51 | 58.10860 | -134.70931 | 3531 ft | 173 kts | 14° |
| 2026-04-25 05:51 | 58.12066 | -134.70497 | 3851 ft | 178 kts | 10° |
| 2026-04-25 05:52 | 58.13304 | -134.70037 | 4072 ft | 185 kts | 12° |
| 2026-04-25 05:52 | 58.14592 | -134.69703 | 4145 ft | 187 kts | 3° |
| 2026-04-25 05:52 | 58.15874 | -134.69576 | 4387 ft | 183 kts | 2° |
| 2026-04-25 05:52 | 58.17163 | -134.69578 | 4501 ft | 187 kts | 356° |
| 2026-04-25 05:53 | 58.18470 | -134.70053 | 4365 ft | 195 kts | 347° |
| 2026-04-25 05:53 | 58.19780 | -134.70684 | 4263 ft | 189 kts | 345° |
| 2026-04-25 05:53 | 58.21027 | -134.71086 | 3714 ft | 181 kts | 354° |
| 2026-04-25 05:53 | 58.22302 | -134.71252 | 2616 ft | 186 kts | 358° |
| 2026-04-25 05:54 | 58.23541 | -134.71146 | 1762 ft | 161 kts | 6° |
| 2026-04-25 05:54 | 58.24628 | -134.70901 | 1774 ft | 163 kts | 7° |
| 2026-04-25 05:54 | 58.26777 | -134.70518 | 1537 ft | 159 kts | 4° |
| 2026-04-25 05:55 | 58.27880 | -134.70316 | 1219 ft | 152 kts | 10° |
| 2026-04-25 05:55 | 58.28885 | -134.70079 | 2009 ft | 143 kts | 8° |
| 2026-04-25 05:55 | 58.29869 | -134.69599 | 1971 ft | 155 kts | 15° |
| 2026-04-25 05:55 | 58.30973 | -134.69236 | 1785 ft | 163 kts | 9° |
| 2026-04-25 05:56 | 58.32084 | -134.68816 | 1573 ft | 164 kts | 15° |
| 2026-04-25 05:56 | 58.33178 | -134.68037 | 1074 ft | 168 kts | 24° |
| 2026-04-25 05:56 | 58.34201 | -134.67001 | 817 ft | 167 kts | 30° |
| 2026-04-25 05:56 | 58.35203 | -134.65917 | 1137 ft | 165 kts | 32° |
| 2026-04-25 05:57 | 58.36045 | -134.64635 | 938 ft | 145 kts | 52° |
| 2026-04-25 05:57 | 58.36845 | -134.63221 | 773 ft | 166 kts | 40° |
| 2026-04-25 05:57 | 58.37669 | -134.61948 | 646 ft | 137 kts | 50° |
| 2026-04-25 05:57 | 58.38025 | -134.60597 | 864 ft | 97 kts | 118° |
| 2026-04-25 05:58 | 58.37643 | -134.59688 | 452 ft | 100 kts | 157° |
| 2026-04-25 05:58 | 58.37179 | -134.59087 | 483 ft | 73 kts | 160° |
| 2026-04-25 05:58 | 58.36786 | -134.58259 | 381 ft | 101 kts | 142° |
| 2026-04-25 05:58 | 58.36210 | -134.57482 | 393 ft | 94 kts | 149° |
| 2026-04-25 05:59 | 58.35801 | -134.56892 | 274 ft | 42 kts | 176° |
| 2026-04-25 05:59 | 58.35675 | -134.56986 | 53 ft | 3 kts | 313° |
| 2026-04-25 05:59 | 58.35692 | -134.57065 | 46 ft | 8 kts | 294° |
| 2026-04-25 05:59 | 58.35698 | -134.57111 | 36 ft | 3 kts | 288° |
| 2026-04-25 06:00 | 58.35699 | -134.57116 | 29 ft | 0 kts | 289° |